Other Surface Observations
Issued by NWS Great Falls, MT

Home | Current Version | Previous Version | Text Only | Print | Product List | Glossary On
Versions: 1 2 3 4 5 6 7 8 9 10 11 12 13 14 15 16 17 18 19 20 21 22 23 24 25 26 27 28 29 30 31 32 33 34 35 36 37 38 39 40 41 42 43 44 45 46 47 48 49 50
214
SXUS55 KTFX 282059
OSOTFX
AREA AWOS OBSERVATIONS
NATIONAL WEATHER SERVICE GREAT FALLS MT
0259 PM MDT SUN AUG 28 2016

METAR KPO1 282100Z AUTO 33008KT 9SM 28/10 A2995 RMK POPLAR
METAR K1S3 282100Z AUTO 00000KT 10SM 32/04 A2996 RMK FORSYTH
METAR KS71 282100Z AUTO 01005KT 10SM 26/09 A3004 RMK CHINOOK
METAR K38S 282100Z AUTO 24007KT 10SM 26/00 A3014 RMK DEER LODGE
METAR K6S5 282100Z AUTO 36005KT 9SM 26/01 A3009 RMK HAMILTON
METAR KS59 282100Z AUTO 17006KT 10SM 26/04 A3006 RMK LIBBY
METAR K88M 282100Z AUTO 26005KT 10SM 24/03 A3003 RMK EUREKA



USA.gov is the U.S. government's official web portal to all federal, state and local government web resources and services.